Meteo Giornale » Osservazioni meteo Stati Uniti (USA) » Falls City Brenner Fld
ore: 23:53 - Osservazioni Meteo Falls City Brenner Fld
Lat. 40° 4' N Lon. 95° 35' W Alt. 300 metri s.l.m.
27 °C
Sereno
Temp. 24 Ore
25 °C
35 °C
Sud
11.1 Km/h
Dew point 19 °C
Umidità 61 %
Visibilità 10 Km
Il sole sorge alle ore 06:50
Il sole tramonta alle ore 19:54
| Data e Ora | Cielo e Fenomeni | T °C | DP °C | Um. % | Pres. hPa | Vis. km | Vento km/h | |
|---|---|---|---|---|---|---|---|---|
| Ieri h: 23:53 | Sereno | 27 | 19 | 61 | 1014 | 10 | S 11.1 | |
| Ieri h: 22:53 | Sereno | 28 | 21 | 65 | 1013 | 10 | S 7.4 | |
| Ieri h: 21:53 | Sereno | 27 | 22 | 74 | 1013 | 10 | SE 7.4 | |
| Ieri h: 20:53 | Sereno | 28 | 22 | 69 | 1012 | 10 | E/SE 9.3 | |
| Ieri h: 19:53 | Sereno | 29 | 23 | 70 | 1012 | 10 | E 7.4 | |
| Ieri h: 18:53 | Sereno | 32 | 23 | 59 | 1012 | 10 | NE 7.4 | |
| Ieri h: 17:53 | Sereno | 34 | 22 | 49 | 1012 | 10 | N 5.5 | |
| Ieri h: 16:53 | Sereno | 35 | 21 | 44 | 1013 | 10 | N 0 | |
| Ieri h: 15:53 | Sereno | 34 | 18 | 38 | 1013 | 10 | N 5.5 | |
| Ieri h: 14:53 | Sereno | 34 | 20 | 43 | 1014 | 10 | N 7.4 | |
| Ieri h: 13:53 | Sereno | 33 | 21 | 49 | 1014 | 10 | O/SO 9.3 | |
| Ieri h: 12:53 | Sereno | 33 | 21 | 49 | 1014 | 10 | O 14.8 | |
| Ieri h: 11:53 | Sereno | 31 | 19 | 48 | 1014 | 10 | SO 7.4 | |
| Ieri h: 10:53 | Sereno | 30 | 20 | 55 | 1013 | 10 | S/SO 11.1 | |
| Ieri h: 09:53 | Sereno | 28 | 19 | 58 | 1012 | 10 | N 5.5 | |
| Ieri h: 08:53 | Sereno | 28 | 19 | 58 | 1013 | 10 | SO 11.1 | |
| Ieri h: 07:53 | Sereno | 26 | 18 | 61 | 1012 | 10 | S 7.4 | |
| Ieri h: 06:53 | Poco Nuvoloso | 25 | 18 | 65 | 1011 | 10 | S/SO 13 | |
| Ieri h: 05:53 | Nuvoloso | 25 | 17 | 61 | 1011 | 10 | S/SO 16.7 | |
| Ieri h: 04:53 | Sereno | 26 | 17 | 57 | 1010 | 10 | S 14.8 | |
| Ieri h: 03:53 | Sereno | 25 | 18 | 65 | 1010 | 10 | S 16.7 | |
| Ieri h: 02:53 | Sereno | 25 | 18 | 65 | 1010 | 10 | S/SO 7.4 | |
| Ieri h: 01:53 | Sereno | 27 | 17 | 54 | 1011 | 10 | S/SO 11.1 | |
| Ieri h: 00:53 | Sereno | 27 | 18 | 57 | 1010 | 10 | S 16.7 | |



